East Keating, Pennsylvania
Current Conditions -  °F | °C
As of 4:54 AM on Saturday 22 Nov 2014 (Local Time) from KFIG Reporting Station
Clear Clear  
Wind Chill:   Ceiling: Unl
Heat Index:   Visibility: 10mi
Dew Point:   Wind: 0mph
Humidity: 88%   Direction: NA
Pressure: 30.37"   Gusts: NA
Location:  41.3342°N, 77.9676°W
Report Text: KFIG 220954Z AUTO 00000KT 10SM CLR M13/M14 A3037 RMK AO2 SLP312 I1000 T11281144
Loading
Personal Weather Stations






























Interactive Weather Map New forecast layout! Learn more

10-Day Weather Forecast

Advertisements
Track Severe Weather on mobile